Monument, New Mexico
Current Conditions -  °F | °C
As of 11:50 AM on Monday 22 Dec 2014 (Local Time) from KHOB Reporting Station
Clear Clear  
Wind Chill: 57°   Ceiling: Unl
Heat Index: 57°   Visibility: 10mi
Dew Point: 32°   Wind: 14mph
Humidity: 38%   Direction: 350°N
Pressure: 29.76"   Gusts: NA
Location:  32.62°N, 103.26°W
Report Text: KHOB 221850Z 35012KT 10SM SKC 14/00 A2976
Loading
Personal Weather Stations






























Interactive Weather Map New forecast layout! Learn more

10-Day Weather Forecast

Advertisements
Track Severe Weather on mobile